Terminal Aerodrome Forecast
Issued by NWS

Home | Current Version | Previous Version | Graphics & Text | Print | Product List | Glossary On
Versions: 1 2 3 4 5 6 7 8 9 10 11 12 13 14 15 16 17 18 19
000
FTUS43 KICT 260947 AAA
TAFSLN
TAF AMD
KSLN 260947Z 2610/2706 03007KT 5SM -RA SCT025 OVC035
      TEMPO 2610/2612 2SM +TSRA OVC022CB
     FM261200 VRB05KT 6SM -RA SCT010 OVC022
      TEMPO 2612/2615 3SM +TSRA OVC008CB
     FM261500 VRB04KT P6SM VCSH OVC008
     FM261700 15007KT P6SM OVC015
     FM261830 18009KT P6SM BKN025 OVC130
     FM262000 19013KT P6SM BKN035 OVC130=

USA.gov is the U.S. government's official web portal to all federal, state and local government web resources and services.